sensor_id;sensor_type;location;lat;lon;timestamp;temperature;humidity
19555;DHT22;9924;50.828;6.440;2023-02-01T00:02:28;6.00;99.90
19555;DHT22;9924;50.828;6.440;2023-02-01T00:05:13;6.00;99.90
19555;DHT22;9924;50.828;6.440;2023-02-01T00:07:58;5.90;99.90
19555;DHT22;9924;50.828;6.440;2023-02-01T00:10:42;5.90;99.90
19555;DHT22;9924;50.828;6.440;2023-02-01T00:13:31;5.90;99.90
19555;DHT22;9924;50.828;6.440;2023-02-01T00:16:20;5.80;99.90
19555;DHT22;9924;50.828;6.440;2023-02-01T00:19:09;5.80;99.90
19555;DHT22;9924;50.828;6.440;2023-02-01T00:21:53;5.80;99.90
19555;DHT22;9924;50.828;6.440;2023-02-01T00:24:38;5.90;99.90
19555;DHT22;9924;50.828;6.440;2023-02-01T00:27:22;5.90;99.90
19555;DHT22;9924;50.828;6.440;2023-02-01T00:30:07;5.90;99.90
19555;DHT22;9924;50.828;6.440;2023-02-01T00:32:53;6.00;99.90
19555;DHT22;9924;50.828;6.440;2023-02-01T00:35:37;6.00;99.90
19555;DHT22;9924;50.828;6.440;2023-02-01T00:38:25;6.00;99.90
19555;DHT22;9924;50.828;6.440;2023-02-01T00:41:20;6.00;99.90
19555;DHT22;9924;50.828;6.440;2023-02-01T00:44:05;6.10;99.90
19555;DHT22;9924;50.828;6.440;2023-02-01T00:46:49;6.10;99.90
19555;DHT22;9924;50.828;6.440;2023-02-01T00:49:33;6.10;99.90
19555;DHT22;9924;50.828;6.440;2023-02-01T00:52:18;6.10;99.90
19555;DHT22;9924;50.828;6.440;2023-02-01T00:55:02;6.10;99.90
19555;DHT22;9924;50.828;6.440;2023-02-01T00:57:47;6.10;99.90
19555;DHT22;9924;50.828;6.440;2023-02-01T01:00:32;6.10;99.90
19555;DHT22;9924;50.828;6.440;2023-02-01T01:03:16;6.10;99.90
19555;DHT22;9924;50.828;6.440;2023-02-01T01:06:06;6.10;99.90
19555;DHT22;9924;50.828;6.440;2023-02-01T01:08:52;6.10;99.90
19555;DHT22;9924;50.828;6.440;2023-02-01T01:11:38;6.10;99.90
19555;DHT22;9924;50.828;6.440;2023-02-01T01:14:23;6.10;99.90
19555;DHT22;9924;50.828;6.440;2023-02-01T01:17:07;6.10;99.90
19555;DHT22;9924;50.828;6.440;2023-02-01T01:19:52;6.10;99.90
19555;DHT22;9924;50.828;6.440;2023-02-01T01:22:36;6.10;99.90
19555;DHT22;9924;50.828;6.440;2023-02-01T01:25:20;6.10;99.90
19555;DHT22;9924;50.828;6.440;2023-02-01T01:28:06;6.10;99.90
19555;DHT22;9924;50.828;6.440;2023-02-01T01:30:50;6.10;99.90
19555;DHT22;9924;50.828;6.440;2023-02-01T01:33:35;6.10;99.90
19555;DHT22;9924;50.828;6.440;2023-02-01T01:36:20;6.10;99.90
19555;DHT22;9924;50.828;6.440;2023-02-01T01:39:04;6.10;99.90
19555;DHT22;9924;50.828;6.440;2023-02-01T01:41:49;6.20;99.90
19555;DHT22;9924;50.828;6.440;2023-02-01T01:47:46;6.20;99.90
19555;DHT22;9924;50.828;6.440;2023-02-01T01:50:40;6.20;99.90
19555;DHT22;9924;50.828;6.440;2023-02-01T01:53:31;6.20;99.90
19555;DHT22;9924;50.828;6.440;2023-02-01T01:56:17;6.20;99.90
19555;DHT22;9924;50.828;6.440;2023-02-01T01:59:01;6.20;99.90
19555;DHT22;9924;50.828;6.440;2023-02-01T02:01:47;6.10;99.90
19555;DHT22;9924;50.828;6.440;2023-02-01T02:04:33;6.20;99.90
19555;DHT22;9924;50.828;6.440;2023-02-01T02:07:22;6.20;99.90
19555;DHT22;9924;50.828;6.440;2023-02-01T02:10:10;6.20;99.90
19555;DHT22;9924;50.828;6.440;2023-02-01T02:12:54;6.20;99.90
19555;DHT22;9924;50.828;6.440;2023-02-01T02:22:04;6.20;99.90
19555;DHT22;9924;50.828;6.440;2023-02-01T02:28:56;6.20;99.90
19555;DHT22;9924;50.828;6.440;2023-02-01T02:32:18;6.20;99.90
19555;DHT22;9924;50.828;6.440;2023-02-01T02:38:10;6.20;99.90
19555;DHT22;9924;50.828;6.440;2023-02-01T02:41:02;6.20;99.90
19555;DHT22;9924;50.828;6.440;2023-02-01T02:43:51;6.10;99.90
19555;DHT22;9924;50.828;6.440;2023-02-01T02:47:05;6.20;99.90
19555;DHT22;9924;50.828;6.440;2023-02-01T02:50:32;6.20;99.90
19555;DHT22;9924;50.828;6.440;2023-02-01T02:53:51;6.20;99.90
19555;DHT22;9924;50.828;6.440;2023-02-01T02:56:56;6.20;99.90
19555;DHT22;9924;50.828;6.440;2023-02-01T03:00:06;6.20;99.90
19555;DHT22;9924;50.828;6.440;2023-02-01T03:03:10;6.20;99.90
19555;DHT22;9924;50.828;6.440;2023-02-01T03:06:16;6.20;99.90
19555;DHT22;9924;50.828;6.440;2023-02-01T03:09:04;6.20;99.90
19555;DHT22;9924;50.828;6.440;2023-02-01T03:11:54;6.20;99.90
19555;DHT22;9924;50.828;6.440;2023-02-01T03:15:08;6.30;99.90
19555;DHT22;9924;50.828;6.440;2023-02-01T03:17:55;6.40;99.90
19555;DHT22;9924;50.828;6.440;2023-02-01T03:20:42;6.30;99.90
19555;DHT22;9924;50.828;6.440;2023-02-01T03:23:31;6.30;99.90
19555;DHT22;9924;50.828;6.440;2023-02-01T03:26:18;6.30;99.90
19555;DHT22;9924;50.828;6.440;2023-02-01T03:29:27;6.30;99.90
19555;DHT22;9924;50.828;6.440;2023-02-01T03:32:14;6.30;99.90
19555;DHT22;9924;50.828;6.440;2023-02-01T03:34:58;6.30;99.90
19555;DHT22;9924;50.828;6.440;2023-02-01T03:37:43;6.30;99.90
19555;DHT22;9924;50.828;6.440;2023-02-01T03:40:32;6.30;99.90
19555;DHT22;9924;50.828;6.440;2023-02-01T03:43:18;6.30;99.90
19555;DHT22;9924;50.828;6.440;2023-02-01T03:46:09;6.30;99.90
19555;DHT22;9924;50.828;6.440;2023-02-01T03:48:56;6.20;99.90
19555;DHT22;9924;50.828;6.440;2023-02-01T03:51:41;6.20;99.90
19555;DHT22;9924;50.828;6.440;2023-02-01T03:54:27;6.10;99.90
19555;DHT22;9924;50.828;6.440;2023-02-01T03:57:14;6.00;99.90
19555;DHT22;9924;50.828;6.440;2023-02-01T04:00:21;6.00;99.90
19555;DHT22;9924;50.828;6.440;2023-02-01T04:03:07;6.00;99.90
19555;DHT22;9924;50.828;6.440;2023-02-01T04:05:52;5.90;99.90
19555;DHT22;9924;50.828;6.440;2023-02-01T04:08:36;5.90;99.90
19555;DHT22;9924;50.828;6.440;2023-02-01T04:11:21;5.80;99.90
19555;DHT22;9924;50.828;6.440;2023-02-01T04:14:05;5.70;99.90
19555;DHT22;9924;50.828;6.440;2023-02-01T04:16:49;5.70;99.90
19555;DHT22;9924;50.828;6.440;2023-02-01T04:19:33;5.70;99.90
19555;DHT22;9924;50.828;6.440;2023-02-01T04:22:17;5.70;99.90
19555;DHT22;9924;50.828;6.440;2023-02-01T04:25:02;5.60;99.90
19555;DHT22;9924;50.828;6.440;2023-02-01T04:27:52;5.60;99.90
19555;DHT22;9924;50.828;6.440;2023-02-01T04:30:37;5.60;99.90
19555;DHT22;9924;50.828;6.440;2023-02-01T04:33:22;5.60;99.90
19555;DHT22;9924;50.828;6.440;2023-02-01T04:36:07;5.50;99.90
19555;DHT22;9924;50.828;6.440;2023-02-01T04:38:52;5.50;99.90
19555;DHT22;9924;50.828;6.440;2023-02-01T04:41:36;5.50;99.90
19555;DHT22;9924;50.828;6.440;2023-02-01T04:44:20;5.40;99.90
19555;DHT22;9924;50.828;6.440;2023-02-01T04:47:05;5.40;99.90
19555;DHT22;9924;50.828;6.440;2023-02-01T04:49:49;5.40;99.90
19555;DHT22;9924;50.828;6.440;2023-02-01T04:52:33;5.30;99.90
19555;DHT22;9924;50.828;6.440;2023-02-01T04:55:17;5.40;99.90
19555;DHT22;9924;50.828;6.440;2023-02-01T04:58:01;5.50;99.90
19555;DHT22;9924;50.828;6.440;2023-02-01T05:00:46;5.50;99.90
19555;DHT22;9924;50.828;6.440;2023-02-01T05:03:31;5.40;99.90
19555;DHT22;9924;50.828;6.440;2023-02-01T05:06:15;5.40;99.90
19555;DHT22;9924;50.828;6.440;2023-02-01T05:09:00;5.40;99.90
19555;DHT22;9924;50.828;6.440;2023-02-01T05:11:45;5.30;99.90
19555;DHT22;9924;50.828;6.440;2023-02-01T05:14:47;5.30;99.90
19555;DHT22;9924;50.828;6.440;2023-02-01T05:17:32;5.20;99.90
19555;DHT22;9924;50.828;6.440;2023-02-01T05:20:17;5.30;99.90
19555;DHT22;9924;50.828;6.440;2023-02-01T05:23:02;5.30;99.90
19555;DHT22;9924;50.828;6.440;2023-02-01T05:25:46;5.20;99.90
19555;DHT22;9924;50.828;6.440;2023-02-01T05:28:30;5.20;99.90
19555;DHT22;9924;50.828;6.440;2023-02-01T05:31:14;5.20;99.90
19555;DHT22;9924;50.828;6.440;2023-02-01T05:33:59;5.20;99.90
19555;DHT22;9924;50.828;6.440;2023-02-01T05:36:43;5.10;99.90
19555;DHT22;9924;50.828;6.440;2023-02-01T05:39:27;5.00;99.90
19555;DHT22;9924;50.828;6.440;2023-02-01T05:42:12;5.00;99.90
19555;DHT22;9924;50.828;6.440;2023-02-01T05:44:56;5.00;99.90
19555;DHT22;9924;50.828;6.440;2023-02-01T05:47:41;5.10;99.90
19555;DHT22;9924;50.828;6.440;2023-02-01T05:50:26;5.00;99.90
19555;DHT22;9924;50.828;6.440;2023-02-01T05:53:10;5.00;99.90
19555;DHT22;9924;50.828;6.440;2023-02-01T05:55:55;5.00;99.90
19555;DHT22;9924;50.828;6.440;2023-02-01T05:58:39;5.00;99.90
19555;DHT22;9924;50.828;6.440;2023-02-01T06:01:23;5.00;99.90
19555;DHT22;9924;50.828;6.440;2023-02-01T06:04:07;4.90;99.90
19555;DHT22;9924;50.828;6.440;2023-02-01T06:06:52;4.90;99.90
19555;DHT22;9924;50.828;6.440;2023-02-01T06:09:37;4.90;99.90
19555;DHT22;9924;50.828;6.440;2023-02-01T06:12:21;4.90;99.90
19555;DHT22;9924;50.828;6.440;2023-02-01T06:15:06;4.90;99.90
19555;DHT22;9924;50.828;6.440;2023-02-01T06:17:51;4.90;99.90
19555;DHT22;9924;50.828;6.440;2023-02-01T06:20:35;4.90;99.90
19555;DHT22;9924;50.828;6.440;2023-02-01T06:23:19;4.90;99.90
19555;DHT22;9924;50.828;6.440;2023-02-01T06:26:09;4.90;99.90
19555;DHT22;9924;50.828;6.440;2023-02-01T06:28:53;4.90;99.90
19555;DHT22;9924;50.828;6.440;2023-02-01T06:31:39;4.90;99.90
19555;DHT22;9924;50.828;6.440;2023-02-01T06:34:24;4.80;99.90
19555;DHT22;9924;50.828;6.440;2023-02-01T06:37:08;4.80;99.90
19555;DHT22;9924;50.828;6.440;2023-02-01T06:39:55;4.80;99.90
19555;DHT22;9924;50.828;6.440;2023-02-01T06:42:39;4.90;99.90
19555;DHT22;9924;50.828;6.440;2023-02-01T06:45:23;4.80;99.90
19555;DHT22;9924;50.828;6.440;2023-02-01T06:48:08;4.80;99.90
19555;DHT22;9924;50.828;6.440;2023-02-01T06:50:52;4.80;99.90
19555;DHT22;9924;50.828;6.440;2023-02-01T06:53:36;4.70;99.90
19555;DHT22;9924;50.828;6.440;2023-02-01T06:56:20;4.70;99.90
19555;DHT22;9924;50.828;6.440;2023-02-01T06:59:06;4.70;99.90
19555;DHT22;9924;50.828;6.440;2023-02-01T07:01:51;4.70;99.90
19555;DHT22;9924;50.828;6.440;2023-02-01T07:04:35;4.70;99.90
19555;DHT22;9924;50.828;6.440;2023-02-01T07:07:20;4.70;99.90
19555;DHT22;9924;50.828;6.440;2023-02-01T07:10:07;4.70;99.90
19555;DHT22;9924;50.828;6.440;2023-02-01T07:12:51;4.70;99.90
19555;DHT22;9924;50.828;6.440;2023-02-01T07:15:35;4.70;99.90
19555;DHT22;9924;50.828;6.440;2023-02-01T07:18:20;4.70;99.90
19555;DHT22;9924;50.828;6.440;2023-02-01T07:21:04;4.70;99.90
19555;DHT22;9924;50.828;6.440;2023-02-01T07:23:49;4.70;99.90
19555;DHT22;9924;50.828;6.440;2023-02-01T07:26:33;4.70;99.90
19555;DHT22;9924;50.828;6.440;2023-02-01T07:29:18;4.70;99.90
19555;DHT22;9924;50.828;6.440;2023-02-01T07:32:03;4.80;99.90
19555;DHT22;9924;50.828;6.440;2023-02-01T07:34:49;4.80;99.90
19555;DHT22;9924;50.828;6.440;2023-02-01T07:37:33;4.80;99.90
19555;DHT22;9924;50.828;6.440;2023-02-01T07:40:17;4.80;99.90
19555;DHT22;9924;50.828;6.440;2023-02-01T07:43:02;4.90;99.90
19555;DHT22;9924;50.828;6.440;2023-02-01T07:45:51;4.90;99.90
19555;DHT22;9924;50.828;6.440;2023-02-01T07:48:36;5.00;99.90
19555;DHT22;9924;50.828;6.440;2023-02-01T07:51:21;5.20;99.90
19555;DHT22;9924;50.828;6.440;2023-02-01T07:54:05;5.30;99.90
19555;DHT22;9924;50.828;6.440;2023-02-01T07:56:49;5.50;99.90
19555;DHT22;9924;50.828;6.440;2023-02-01T07:59:34;5.60;99.90
19555;DHT22;9924;50.828;6.440;2023-02-01T08:02:18;5.50;99.90
19555;DHT22;9924;50.828;6.440;2023-02-01T08:05:02;5.50;99.90
19555;DHT22;9924;50.828;6.440;2023-02-01T08:07:50;5.40;99.90
19555;DHT22;9924;50.828;6.440;2023-02-01T08:10:34;5.50;99.90
19555;DHT22;9924;50.828;6.440;2023-02-01T08:13:18;5.40;99.90
19555;DHT22;9924;50.828;6.440;2023-02-01T08:16:05;5.40;99.90
19555;DHT22;9924;50.828;6.440;2023-02-01T08:18:50;5.30;99.90
19555;DHT22;9924;50.828;6.440;2023-02-01T08:21:35;5.30;99.90
19555;DHT22;9924;50.828;6.440;2023-02-01T08:24:22;5.40;99.90
19555;DHT22;9924;50.828;6.440;2023-02-01T08:27:06;5.40;99.90
19555;DHT22;9924;50.828;6.440;2023-02-01T08:29:50;5.50;99.90
19555;DHT22;9924;50.828;6.440;2023-02-01T08:32:35;5.50;99.90
19555;DHT22;9924;50.828;6.440;2023-02-01T08:35:20;5.50;99.90
19555;DHT22;9924;50.828;6.440;2023-02-01T08:38:04;5.40;99.90
19555;DHT22;9924;50.828;6.440;2023-02-01T08:40:49;5.40;99.90
19555;DHT22;9924;50.828;6.440;2023-02-01T08:43:33;5.50;99.90
19555;DHT22;9924;50.828;6.440;2023-02-01T08:46:17;5.60;99.90
19555;DHT22;9924;50.828;6.440;2023-02-01T08:49:02;5.70;99.90
19555;DHT22;9924;50.828;6.440;2023-02-01T08:51:46;5.80;99.90
19555;DHT22;9924;50.828;6.440;2023-02-01T08:54:31;5.90;99.90
19555;DHT22;9924;50.828;6.440;2023-02-01T08:57:14;5.90;99.90
19555;DHT22;9924;50.828;6.440;2023-02-01T08:59:58;6.00;99.90
19555;DHT22;9924;50.828;6.440;2023-02-01T09:02:44;6.10;99.90
19555;DHT22;9924;50.828;6.440;2023-02-01T09:05:29;6.10;99.90
19555;DHT22;9924;50.828;6.440;2023-02-01T09:08:13;6.00;99.90
19555;DHT22;9924;50.828;6.440;2023-02-01T09:11:04;6.10;99.90
19555;DHT22;9924;50.828;6.440;2023-02-01T09:13:49;6.10;99.90
19555;DHT22;9924;50.828;6.440;2023-02-01T09:16:33;6.10;99.90
19555;DHT22;9924;50.828;6.440;2023-02-01T09:19:18;6.20;99.90
19555;DHT22;9924;50.828;6.440;2023-02-01T09:22:02;6.20;99.90
19555;DHT22;9924;50.828;6.440;2023-02-01T09:24:46;6.20;99.90
19555;DHT22;9924;50.828;6.440;2023-02-01T09:27:31;6.10;99.90
19555;DHT22;9924;50.828;6.440;2023-02-01T09:30:15;6.00;99.90
19555;DHT22;9924;50.828;6.440;2023-02-01T09:32:59;6.10;99.90
19555;DHT22;9924;50.828;6.440;2023-02-01T09:35:43;6.20;99.90
19555;DHT22;9924;50.828;6.440;2023-02-01T09:38:28;6.50;99.90
19555;DHT22;9924;50.828;6.440;2023-02-01T09:47:35;6.80;99.90
19555;DHT22;9924;50.828;6.440;2023-02-01T09:50:28;6.90;99.90
19555;DHT22;9924;50.828;6.440;2023-02-01T09:59:54;7.20;99.90
19555;DHT22;9924;50.828;6.440;2023-02-01T10:02:42;7.20;99.90
19555;DHT22;9924;50.828;6.440;2023-02-01T10:15:13;8.00;99.90
19555;DHT22;9924;50.828;6.440;2023-02-01T10:18:10;8.20;99.90
19555;DHT22;9924;50.828;6.440;2023-02-01T10:27:43;8.80;99.90
19555;DHT22;9924;50.828;6.440;2023-02-01T10:30:33;8.60;99.90
19555;DHT22;9924;50.828;6.440;2023-02-01T10:33:25;8.20;99.90
19555;DHT22;9924;50.828;6.440;2023-02-01T10:36:20;8.00;99.90
19555;DHT22;9924;50.828;6.440;2023-02-01T10:39:06;8.10;99.90
19555;DHT22;9924;50.828;6.440;2023-02-01T10:41:52;8.50;99.90
19555;DHT22;9924;50.828;6.440;2023-02-01T10:44:42;8.90;99.90
19555;DHT22;9924;50.828;6.440;2023-02-01T10:47:28;8.90;99.90
19555;DHT22;9924;50.828;6.440;2023-02-01T10:53:25;8.80;99.90
19555;DHT22;9924;50.828;6.440;2023-02-01T10:56:13;9.20;99.90
19555;DHT22;9924;50.828;6.440;2023-02-01T10:59:13;8.50;99.90
19555;DHT22;9924;50.828;6.440;2023-02-01T11:02:00;8.20;99.90
19555;DHT22;9924;50.828;6.440;2023-02-01T11:04:45;8.40;99.90
19555;DHT22;9924;50.828;6.440;2023-02-01T11:07:29;8.60;99.90
19555;DHT22;9924;50.828;6.440;2023-02-01T11:10:35;9.00;99.90
19555;DHT22;9924;50.828;6.440;2023-02-01T11:13:19;9.20;99.90
19555;DHT22;9924;50.828;6.440;2023-02-01T11:16:05;9.30;99.90
19555;DHT22;9924;50.828;6.440;2023-02-01T11:18:53;9.60;99.90
19555;DHT22;9924;50.828;6.440;2023-02-01T11:21:39;9.50;99.90
19555;DHT22;9924;50.828;6.440;2023-02-01T11:24:36;9.30;99.90
19555;DHT22;9924;50.828;6.440;2023-02-01T11:27:24;9.20;99.90
19555;DHT22;9924;50.828;6.440;2023-02-01T11:30:16;9.00;99.90
19555;DHT22;9924;50.828;6.440;2023-02-01T11:33:03;8.90;99.90
19555;DHT22;9924;50.828;6.440;2023-02-01T11:35:48;8.70;99.90
19555;DHT22;9924;50.828;6.440;2023-02-01T11:38:34;8.50;99.90
19555;DHT22;9924;50.828;6.440;2023-02-01T11:41:26;8.40;99.90
19555;DHT22;9924;50.828;6.440;2023-02-01T11:44:23;8.20;99.90
19555;DHT22;9924;50.828;6.440;2023-02-01T11:50:22;8.30;99.90
19555;DHT22;9924;50.828;6.440;2023-02-01T12:36:32;7.60;99.90
19555;DHT22;9924;50.828;6.440;2023-02-01T12:39:32;7.60;99.90
19555;DHT22;9924;50.828;6.440;2023-02-01T12:42:32;7.50;99.90
19555;DHT22;9924;50.828;6.440;2023-02-01T12:45:39;7.50;99.90
19555;DHT22;9924;50.828;6.440;2023-02-01T12:48:33;7.60;99.90
19555;DHT22;9924;50.828;6.440;2023-02-01T12:51:23;7.70;99.90
19555;DHT22;9924;50.828;6.440;2023-02-01T12:54:35;7.70;99.90
19555;DHT22;9924;50.828;6.440;2023-02-01T12:57:26;7.70;99.90
19555;DHT22;9924;50.828;6.440;2023-02-01T13:00:28;7.60;99.90
19555;DHT22;9924;50.828;6.440;2023-02-01T13:03:25;7.50;99.90
19555;DHT22;9924;50.828;6.440;2023-02-01T13:06:22;7.50;99.90
19555;DHT22;9924;50.828;6.440;2023-02-01T13:12:28;7.40;99.90
19555;DHT22;9924;50.828;6.440;2023-02-01T13:15:39;7.40;99.90
19555;DHT22;9924;50.828;6.440;2023-02-01T13:18:28;7.40;99.90
19555;DHT22;9924;50.828;6.440;2023-02-01T13:21:22;7.40;99.90
19555;DHT22;9924;50.828;6.440;2023-02-01T13:27:11;7.40;99.90
19555;DHT22;9924;50.828;6.440;2023-02-01T13:30:30;7.40;99.90
19555;DHT22;9924;50.828;6.440;2023-02-01T13:43:46;7.40;99.90
19555;DHT22;9924;50.828;6.440;2023-02-01T13:46:11;7.50;99.90
19555;DHT22;9924;50.828;6.440;2023-02-01T13:49:02;7.50;99.90
19555;DHT22;9924;50.828;6.440;2023-02-01T13:51:50;7.50;99.90
19555;DHT22;9924;50.828;6.440;2023-02-01T13:54:39;7.50;99.90
19555;DHT22;9924;50.828;6.440;2023-02-01T13:57:38;7.40;99.90
19555;DHT22;9924;50.828;6.440;2023-02-01T14:00:32;7.50;99.90
19555;DHT22;9924;50.828;6.440;2023-02-01T14:03:46;7.50;99.90
19555;DHT22;9924;50.828;6.440;2023-02-01T14:09:18;7.50;99.90
19555;DHT22;9924;50.828;6.440;2023-02-01T14:12:42;7.50;99.90
19555;DHT22;9924;50.828;6.440;2023-02-01T14:15:27;7.50;99.90
19555;DHT22;9924;50.828;6.440;2023-02-01T14:26:58;7.60;99.90
19555;DHT22;9924;50.828;6.440;2023-02-01T14:29:51;7.60;99.90
19555;DHT22;9924;50.828;6.440;2023-02-01T14:32:42;7.60;99.90
19555;DHT22;9924;50.828;6.440;2023-02-01T14:35:30;7.60;99.90
19555;DHT22;9924;50.828;6.440;2023-02-01T14:38:14;7.60;99.90
19555;DHT22;9924;50.828;6.440;2023-02-01T14:41:25;7.60;99.90
19555;DHT22;9924;50.828;6.440;2023-02-01T14:47:26;7.70;99.90
19555;DHT22;9924;50.828;6.440;2023-02-01T14:50:18;7.70;99.90
19555;DHT22;9924;50.828;6.440;2023-02-01T14:56:04;7.90;99.90
19555;DHT22;9924;50.828;6.440;2023-02-01T15:01:52;7.90;99.90
19555;DHT22;9924;50.828;6.440;2023-02-01T15:04:41;7.90;99.90
19555;DHT22;9924;50.828;6.440;2023-02-01T15:07:27;8.00;99.90
19555;DHT22;9924;50.828;6.440;2023-02-01T15:10:12;8.00;99.90
19555;DHT22;9924;50.828;6.440;2023-02-01T15:12:57;8.00;99.90
19555;DHT22;9924;50.828;6.440;2023-02-01T15:15:41;7.90;99.90
19555;DHT22;9924;50.828;6.440;2023-02-01T15:18:26;8.00;99.90
19555;DHT22;9924;50.828;6.440;2023-02-01T15:21:20;8.00;99.90
19555;DHT22;9924;50.828;6.440;2023-02-01T15:27:09;8.00;99.90
19555;DHT22;9924;50.828;6.440;2023-02-01T15:30:04;8.00;99.90
19555;DHT22;9924;50.828;6.440;2023-02-01T15:33:15;8.00;99.90
19555;DHT22;9924;50.828;6.440;2023-02-01T15:36:10;7.90;99.90
19555;DHT22;9924;50.828;6.440;2023-02-01T15:39:17;7.90;99.90
19555;DHT22;9924;50.828;6.440;2023-02-01T15:42:15;7.80;99.90
19555;DHT22;9924;50.828;6.440;2023-02-01T15:45:03;7.70;99.90
19555;DHT22;9924;50.828;6.440;2023-02-01T15:47:49;7.70;99.90
19555;DHT22;9924;50.828;6.440;2023-02-01T15:50:39;7.60;99.90
19555;DHT22;9924;50.828;6.440;2023-02-01T15:53:25;7.60;99.90
19555;DHT22;9924;50.828;6.440;2023-02-01T15:56:15;7.50;99.90
19555;DHT22;9924;50.828;6.440;2023-02-01T15:59:02;7.40;99.90
19555;DHT22;9924;50.828;6.440;2023-02-01T16:01:48;7.20;99.90
19555;DHT22;9924;50.828;6.440;2023-02-01T16:04:47;7.10;99.90
19555;DHT22;9924;50.828;6.440;2023-02-01T16:07:34;7.00;99.90
19555;DHT22;9924;50.828;6.440;2023-02-01T16:10:26;6.90;99.90
19555;DHT22;9924;50.828;6.440;2023-02-01T16:13:12;6.80;99.90
19555;DHT22;9924;50.828;6.440;2023-02-01T16:15:56;6.70;99.90
19555;DHT22;9924;50.828;6.440;2023-02-01T16:18:41;6.70;99.90
19555;DHT22;9924;50.828;6.440;2023-02-01T16:21:26;6.70;99.90
19555;DHT22;9924;50.828;6.440;2023-02-01T16:24:10;6.60;99.90
19555;DHT22;9924;50.828;6.440;2023-02-01T16:26:54;6.60;99.90
19555;DHT22;9924;50.828;6.440;2023-02-01T16:29:39;6.60;99.90
19555;DHT22;9924;50.828;6.440;2023-02-01T16:32:23;6.60;99.90
19555;DHT22;9924;50.828;6.440;2023-02-01T16:35:38;6.50;99.90
19555;DHT22;9924;50.828;6.440;2023-02-01T16:38:23;6.50;99.90
19555;DHT22;9924;50.828;6.440;2023-02-01T16:41:11;6.40;99.90
19555;DHT22;9924;50.828;6.440;2023-02-01T16:43:57;6.40;99.90
19555;DHT22;9924;50.828;6.440;2023-02-01T16:46:45;6.30;99.90
19555;DHT22;9924;50.828;6.440;2023-02-01T16:49:30;6.40;99.90
19555;DHT22;9924;50.828;6.440;2023-02-01T16:52:24;6.40;99.90
19555;DHT22;9924;50.828;6.440;2023-02-01T16:55:16;6.40;99.90
19555;DHT22;9924;50.828;6.440;2023-02-01T16:58:01;6.40;99.90
19555;DHT22;9924;50.828;6.440;2023-02-01T17:00:47;6.40;99.90
19555;DHT22;9924;50.828;6.440;2023-02-01T17:03:31;6.40;99.90
19555;DHT22;9924;50.828;6.440;2023-02-01T17:06:21;6.40;99.90
19555;DHT22;9924;50.828;6.440;2023-02-01T17:09:05;6.40;99.90
19555;DHT22;9924;50.828;6.440;2023-02-01T17:11:50;6.40;99.90
19555;DHT22;9924;50.828;6.440;2023-02-01T17:14:38;6.50;99.90
19555;DHT22;9924;50.828;6.440;2023-02-01T17:17:35;6.50;99.90
19555;DHT22;9924;50.828;6.440;2023-02-01T17:20:24;6.40;99.90
19555;DHT22;9924;50.828;6.440;2023-02-01T17:23:08;6.40;99.90
19555;DHT22;9924;50.828;6.440;2023-02-01T17:25:54;6.40;99.90
19555;DHT22;9924;50.828;6.440;2023-02-01T17:28:38;6.40;99.90
19555;DHT22;9924;50.828;6.440;2023-02-01T17:31:23;6.40;99.90
19555;DHT22;9924;50.828;6.440;2023-02-01T17:34:11;6.40;99.90
19555;DHT22;9924;50.828;6.440;2023-02-01T17:36:58;6.50;99.90
19555;DHT22;9924;50.828;6.440;2023-02-01T17:39:43;6.50;99.90
19555;DHT22;9924;50.828;6.440;2023-02-01T17:42:40;6.50;99.90
19555;DHT22;9924;50.828;6.440;2023-02-01T17:45:34;6.40;99.90
19555;DHT22;9924;50.828;6.440;2023-02-01T17:48:22;6.40;99.90
19555;DHT22;9924;50.828;6.440;2023-02-01T17:51:17;6.40;99.90
19555;DHT22;9924;50.828;6.440;2023-02-01T17:54:01;6.40;99.90
19555;DHT22;9924;50.828;6.440;2023-02-01T17:56:47;6.40;99.90
19555;DHT22;9924;50.828;6.440;2023-02-01T17:59:32;6.40;99.90
19555;DHT22;9924;50.828;6.440;2023-02-01T18:02:19;6.40;99.90
19555;DHT22;9924;50.828;6.440;2023-02-01T18:08:06;6.60;99.90
19555;DHT22;9924;50.828;6.440;2023-02-01T18:10:56;6.60;99.90
19555;DHT22;9924;50.828;6.440;2023-02-01T18:13:44;6.60;99.90
19555;DHT22;9924;50.828;6.440;2023-02-01T18:16:33;6.60;99.90
19555;DHT22;9924;50.828;6.440;2023-02-01T18:19:21;6.60;99.90
19555;DHT22;9924;50.828;6.440;2023-02-01T18:22:06;6.60;99.90
19555;DHT22;9924;50.828;6.440;2023-02-01T18:24:53;6.60;99.90
19555;DHT22;9924;50.828;6.440;2023-02-01T18:27:37;6.70;99.90
19555;DHT22;9924;50.828;6.440;2023-02-01T18:30:24;6.70;99.90
19555;DHT22;9924;50.828;6.440;2023-02-01T18:33:16;6.60;99.90
19555;DHT22;9924;50.828;6.440;2023-02-01T18:36:00;6.70;99.90
19555;DHT22;9924;50.828;6.440;2023-02-01T18:38:44;6.70;99.90
19555;DHT22;9924;50.828;6.440;2023-02-01T18:41:29;6.70;99.90
19555;DHT22;9924;50.828;6.440;2023-02-01T18:44:14;6.70;99.90
19555;DHT22;9924;50.828;6.440;2023-02-01T18:46:58;6.70;99.90
19555;DHT22;9924;50.828;6.440;2023-02-01T18:49:43;6.70;99.90
19555;DHT22;9924;50.828;6.440;2023-02-01T18:52:27;6.70;99.90
19555;DHT22;9924;50.828;6.440;2023-02-01T18:55:11;6.70;99.90
19555;DHT22;9924;50.828;6.440;2023-02-01T18:57:56;6.60;99.90
19555;DHT22;9924;50.828;6.440;2023-02-01T19:00:40;6.70;99.90
19555;DHT22;9924;50.828;6.440;2023-02-01T19:03:24;6.60;99.90
19555;DHT22;9924;50.828;6.440;2023-02-01T19:06:10;6.70;99.90
19555;DHT22;9924;50.828;6.440;2023-02-01T19:08:54;6.70;99.90
19555;DHT22;9924;50.828;6.440;2023-02-01T19:11:38;6.70;99.90
19555;DHT22;9924;50.828;6.440;2023-02-01T19:14:23;6.80;99.90
19555;DHT22;9924;50.828;6.440;2023-02-01T19:17:07;6.80;99.90
19555;DHT22;9924;50.828;6.440;2023-02-01T19:20:01;6.80;99.90
19555;DHT22;9924;50.828;6.440;2023-02-01T19:22:48;6.70;99.90
19555;DHT22;9924;50.828;6.440;2023-02-01T19:25:32;6.70;99.90
19555;DHT22;9924;50.828;6.440;2023-02-01T19:28:16;6.60;99.90
19555;DHT22;9924;50.828;6.440;2023-02-01T19:31:05;6.70;99.90
19555;DHT22;9924;50.828;6.440;2023-02-01T19:33:50;6.70;99.90
19555;DHT22;9924;50.828;6.440;2023-02-01T19:36:34;6.70;99.90
19555;DHT22;9924;50.828;6.440;2023-02-01T19:39:22;6.70;99.90
19555;DHT22;9924;50.828;6.440;2023-02-01T19:42:08;6.70;99.90
19555;DHT22;9924;50.828;6.440;2023-02-01T19:44:52;6.70;99.90
19555;DHT22;9924;50.828;6.440;2023-02-01T19:47:37;6.80;99.90
19555;DHT22;9924;50.828;6.440;2023-02-01T19:50:21;6.80;99.90
19555;DHT22;9924;50.828;6.440;2023-02-01T19:53:08;6.80;99.90
19555;DHT22;9924;50.828;6.440;2023-02-01T19:55:55;6.80;99.90
19555;DHT22;9924;50.828;6.440;2023-02-01T19:58:39;6.80;99.90
19555;DHT22;9924;50.828;6.440;2023-02-01T20:01:23;6.80;99.90
19555;DHT22;9924;50.828;6.440;2023-02-01T20:04:09;6.80;99.90
19555;DHT22;9924;50.828;6.440;2023-02-01T20:06:55;6.80;99.90
19555;DHT22;9924;50.828;6.440;2023-02-01T20:09:40;6.80;99.90
19555;DHT22;9924;50.828;6.440;2023-02-01T20:12:25;6.70;99.90
19555;DHT22;9924;50.828;6.440;2023-02-01T20:15:09;6.70;99.90
19555;DHT22;9924;50.828;6.440;2023-02-01T20:17:53;6.70;99.90
19555;DHT22;9924;50.828;6.440;2023-02-01T20:20:40;6.70;99.90
19555;DHT22;9924;50.828;6.440;2023-02-01T20:23:25;6.70;99.90
19555;DHT22;9924;50.828;6.440;2023-02-01T20:26:10;6.70;99.90
19555;DHT22;9924;50.828;6.440;2023-02-01T20:28:55;6.70;99.90
19555;DHT22;9924;50.828;6.440;2023-02-01T20:31:39;6.70;99.90
19555;DHT22;9924;50.828;6.440;2023-02-01T20:34:23;6.70;99.90
19555;DHT22;9924;50.828;6.440;2023-02-01T20:37:08;6.70;99.90